Time;durP1;ratioP1;P1;durP2;ratioP2;P2;SDS_P1;SDS_P2;PMS_P1;PMS_P2;Temp;Humidity;BMP_temperature;BMP_pressure;BME280_temperature;BME280_humidity;BME280_pressure;Samples;Min_cycle;Max_cycle;Signal;HPM_P1;HPM_P2
2023/12/17 00:00:21;;;;;;;15.02;8.68;;;10.40;99.90;;;;;;7373975;19;20367;-67
2023/12/17 00:02:47;;;;;;;14.95;9.48;;;10.40;99.90;;;;;;7375766;19;20043;-68
2023/12/17 00:05:15;;;;;;;11.85;7.93;;;10.40;99.90;;;;;;7365364;19;20019;-63
2023/12/17 00:07:42;;;;;;;14.93;7.85;;;10.40;99.90;;;;;;7371049;19;20041;-63
2023/12/17 00:10:08;;;;;;;12.80;8.32;;;10.30;99.90;;;;;;7366208;19;20835;-63
2023/12/17 00:12:35;;;;;;;13.90;7.95;;;10.40;99.90;;;;;;7372531;19;20749;-67
2023/12/17 00:15:01;;;;;;;15.38;7.43;;;10.40;99.90;;;;;;7369344;19;20015;-63
2023/12/17 00:17:37;;;;;;;16.38;8.00;;;10.30;99.90;;;;;;7408469;19;20374;-62
2023/12/17 00:20:24;;;;;;;15.48;8.20;;;10.30;99.90;;;;;;7404499;19;20037;-62
2023/12/17 00:22:50;;;;;;;14.50;8.10;;;10.40;99.90;;;;;;7406560;19;20115;-62
2023/12/17 00:25:17;;;;;;;12.80;8.05;;;10.40;99.90;;;;;;7405027;19;20022;-62
2023/12/17 00:28:03;;;;;;;14.68;8.23;;;10.40;99.90;;;;;;7406898;19;20031;-62
2023/12/17 00:30:29;;;;;;;16.63;9.20;;;10.40;99.90;;;;;;7405979;19;20053;-62
2023/12/17 00:32:55;;;;;;;15.30;8.57;;;10.40;99.90;;;;;;7404786;19;20022;-62
2023/12/17 00:35:21;;;;;;;13.88;8.70;;;10.40;99.90;;;;;;7403344;19;20018;-62
2023/12/17 00:37:48;;;;;;;17.58;9.23;;;10.40;99.90;;;;;;7406385;19;20656;-62
2023/12/17 00:40:17;;;;;;;15.77;8.48;;;10.40;99.90;;;;;;7402312;19;20019;-62
2023/12/17 00:42:44;;;;;;;16.48;8.75;;;10.30;99.90;;;;;;7404743;19;20026;-62
2023/12/17 00:45:10;;;;;;;14.02;8.35;;;10.40;99.90;;;;;;7402729;19;20057;-62
2023/12/17 00:47:36;;;;;;;12.32;8.18;;;10.40;99.90;;;;;;7409534;19;20026;-62
2023/12/17 00:50:02;;;;;;;13.10;7.80;;;10.40;99.90;;;;;;7405296;19;20019;-66
2023/12/17 00:52:29;;;;;;;16.55;7.93;;;10.40;99.90;;;;;;7406357;19;20026;-66
2023/12/17 00:54:55;;;;;;;11.13;7.57;;;10.30;99.90;;;;;;7403235;19;20022;-66
2023/12/17 00:57:22;;;;;;;14.50;8.15;;;10.30;99.90;;;;;;7400219;19;20029;-66
2023/12/17 00:59:48;;;;;;;15.23;7.97;;;10.30;99.90;;;;;;7406556;19;20022;-66
2023/12/17 01:02:17;;;;;;;17.20;8.18;;;10.30;99.90;;;;;;7405279;19;20581;-66
2023/12/17 01:04:43;;;;;;;13.15;8.07;;;10.30;99.90;;;;;;7404880;19;20022;-66
2023/12/17 01:07:10;;;;;;;16.95;7.55;;;10.30;99.90;;;;;;7403645;19;20027;-66
2023/12/17 01:09:36;;;;;;;18.88;8.57;;;10.30;99.90;;;;;;7404277;19;20014;-66
2023/12/17 01:12:05;;;;;;;17.65;8.35;;;10.40;99.90;;;;;;7405319;19;20022;-66
2023/12/17 01:14:34;;;;;;;15.02;8.50;;;10.40;99.90;;;;;;7401798;19;20021;-66
2023/12/17 01:17:06;;;;;;;15.60;8.43;;;10.40;99.90;;;;;;7400673;19;20014;-66
2023/12/17 01:19:36;;;;;;;19.08;9.48;;;10.30;99.90;;;;;;7404697;19;20022;-66
2023/12/17 01:22:03;;;;;;;17.38;7.93;;;10.40;99.90;;;;;;7403219;19;20108;-66
2023/12/17 01:24:30;;;;;;;14.88;8.70;;;10.30;99.90;;;;;;7402868;19;20824;-66
2023/12/17 01:26:59;;;;;;;15.90;8.32;;;10.40;99.90;;;;;;7397095;19;20126;-66
2023/12/17 01:29:26;;;;;;;16.55;8.77;;;10.40;99.90;;;;;;7378233;19;20014;-66
2023/12/17 01:31:53;;;;;;;14.13;8.05;;;10.40;99.90;;;;;;7374796;19;20015;-66
2023/12/17 01:34:20;;;;;;;12.13;8.75;;;10.40;99.90;;;;;;7373912;19;20584;-66
2023/12/17 01:36:46;;;;;;;12.52;7.70;;;10.40;99.90;;;;;;7373383;19;20025;-67
2023/12/17 01:39:12;;;;;;;13.05;7.55;;;10.40;99.90;;;;;;7376532;19;20026;-67
2023/12/17 01:41:39;;;;;;;13.82;8.45;;;10.40;99.90;;;;;;7378557;19;20014;-67
2023/12/17 01:44:05;;;;;;;14.77;8.32;;;10.40;99.90;;;;;;7376642;19;20801;-66
2023/12/17 01:46:31;;;;;;;13.38;8.50;;;10.40;99.90;;;;;;7370911;19;20026;-66
2023/12/17 01:48:58;;;;;;;16.67;8.70;;;10.40;99.90;;;;;;7378724;19;20018;-66
2023/12/17 01:51:26;;;;;;;15.02;8.13;;;10.40;99.90;;;;;;7374610;19;20059;-66
2023/12/17 01:53:52;;;;;;;15.80;9.40;;;10.40;99.90;;;;;;7377663;19;20022;-66
2023/12/17 01:56:19;;;;;;;18.45;9.10;;;10.40;99.90;;;;;;7367956;19;20011;-66
2023/12/17 01:58:48;;;;;;;17.23;8.93;;;10.40;99.90;;;;;;7374156;19;20022;-66
2023/12/17 02:01:14;;;;;;;17.70;8.80;;;10.40;99.90;;;;;;7375242;19;20044;-66
2023/12/17 02:03:41;;;;;;;15.32;9.50;;;10.40;99.90;;;;;;7375657;19;20030;-66
2023/12/17 02:06:10;;;;;;;17.77;9.45;;;10.40;99.90;;;;;;7370920;19;20018;-66
2023/12/17 02:08:36;;;;;;;14.02;8.90;;;10.40;99.90;;;;;;7375891;19;20018;-66
2023/12/17 02:11:03;;;;;;;15.95;8.68;;;10.40;99.90;;;;;;7370927;19;20056;-66
2023/12/17 02:13:50;;;;;;;16.38;9.55;;;10.40;99.90;;;;;;7374779;19;20090;-66
2023/12/17 02:16:16;;;;;;;15.57;9.13;;;10.40;99.90;;;;;;7368691;19;20437;-66
2023/12/17 02:18:42;;;;;;;12.88;10.07;;;10.40;99.90;;;;;;7366485;19;20489;-66
2023/12/17 02:21:09;;;;;;;19.90;10.20;;;10.50;99.90;;;;;;7374132;19;20030;-66
2023/12/17 02:23:36;;;;;;;20.20;10.77;;;10.40;99.90;;;;;;7374128;19;20103;-66
2023/12/17 02:26:03;;;;;;;19.90;11.70;;;10.50;99.90;;;;;;7372609;19;20474;-67
2023/12/17 02:28:30;;;;;;;16.98;10.88;;;10.40;99.90;;;;;;7373415;19;20417;-67
2023/12/17 02:30:56;;;;;;;17.25;11.35;;;10.40;99.90;;;;;;7362279;19;21150;-66
2023/12/17 02:33:26;;;;;;;19.20;11.15;;;10.40;99.90;;;;;;7375036;19;20029;-66
2023/12/17 02:35:52;;;;;;;16.55;11.38;;;10.40;99.90;;;;;;7370415;19;20018;-61
2023/12/17 02:38:18;;;;;;;18.38;10.65;;;10.40;99.90;;;;;;7372587;19;20018;-62
2023/12/17 02:40:45;;;;;;;17.60;11.32;;;10.40;99.90;;;;;;7371504;19;20025;-61
2023/12/17 02:43:12;;;;;;;16.08;10.93;;;10.40;99.90;;;;;;7373324;19;20026;-62
2023/12/17 02:45:38;;;;;;;16.10;11.48;;;10.40;99.90;;;;;;7374506;19;20014;-61
2023/12/17 02:48:04;;;;;;;16.05;10.30;;;10.40;99.90;;;;;;7370833;19;20018;-66
2023/12/17 02:50:31;;;;;;;19.70;12.07;;;10.40;99.90;;;;;;7371627;19;20394;-66
2023/12/17 02:52:57;;;;;;;16.95;11.70;;;10.40;99.90;;;;;;7373253;19;20034;-66
2023/12/17 02:55:23;;;;;;;15.43;11.18;;;10.40;99.90;;;;;;7371813;19;20026;-66
2023/12/17 02:57:50;;;;;;;16.83;11.02;;;10.40;99.90;;;;;;7370438;19;20014;-62
2023/12/17 03:00:16;;;;;;;15.02;10.82;;;10.40;99.90;;;;;;7374053;19;20703;-66
2023/12/17 03:02:43;;;;;;;17.45;11.45;;;10.40;99.90;;;;;;7367527;19;20018;-67
2023/12/17 03:05:10;;;;;;;16.88;11.38;;;10.40;99.90;;;;;;7372800;19;20055;-66
2023/12/17 03:07:36;;;;;;;16.02;10.45;;;10.40;99.90;;;;;;7369463;19;20022;-66
2023/12/17 03:10:03;;;;;;;15.65;10.40;;;10.40;99.90;;;;;;7373130;19;20015;-66
2023/12/17 03:12:29;;;;;;;18.38;10.48;;;10.40;99.90;;;;;;7373766;19;20018;-68
2023/12/17 03:15:16;;;;;;;18.20;10.10;;;10.40;99.90;;;;;;7366278;19;20018;-67
2023/12/17 03:17:42;;;;;;;18.15;11.32;;;10.40;99.90;;;;;;7364707;19;20018;-67
2023/12/17 03:20:09;;;;;;;15.23;10.27;;;10.40;99.90;;;;;;7372315;19;20018;-66
2023/12/17 03:22:35;;;;;;;17.20;10.30;;;10.40;99.90;;;;;;7371351;19;20018;-66
2023/12/17 03:25:22;;;;;;;17.38;10.25;;;10.40;99.90;;;;;;7370250;19;20465;-67
2023/12/17 03:27:49;;;;;;;19.52;11.25;;;10.30;99.90;;;;;;7371949;19;20019;-66
2023/12/17 03:30:15;;;;;;;20.35;11.10;;;10.30;99.90;;;;;;7371912;19;20018;-66
2023/12/17 03:32:42;;;;;;;17.10;11.63;;;10.30;99.90;;;;;;7370696;19;20496;-68
2023/12/17 03:35:08;;;;;;;18.95;11.43;;;10.30;99.90;;;;;;7372099;19;20030;-66
2023/12/17 03:37:34;;;;;;;15.70;11.82;;;10.30;99.90;;;;;;7366728;19;20019;-67
2023/12/17 03:40:00;;;;;;;18.08;11.85;;;10.30;99.90;;;;;;7372606;19;20048;-67
2023/12/17 03:42:27;;;;;;;17.77;12.75;;;10.30;99.90;;;;;;7370324;19;20052;-66
2023/12/17 03:44:53;;;;;;;21.65;12.60;;;10.30;99.90;;;;;;7371225;19;20024;-67
2023/12/17 03:47:20;;;;;;;20.10;12.73;;;10.30;99.90;;;;;;7370029;19;20022;-66
2023/12/17 03:49:46;;;;;;;19.50;11.93;;;10.30;99.90;;;;;;7371261;19;20733;-62
2023/12/17 03:52:12;;;;;;;19.25;12.43;;;10.30;99.90;;;;;;7369401;19;20057;-62
2023/12/17 03:54:39;;;;;;;17.70;12.65;;;10.30;99.90;;;;;;7367100;19;20018;-62
2023/12/17 03:57:05;;;;;;;16.33;12.05;;;10.30;99.90;;;;;;7367958;19;20026;-63
2023/12/17 03:59:33;;;;;;;17.15;12.35;;;10.30;99.90;;;;;;7368214;19;20029;-67
2023/12/17 04:02:02;;;;;;;20.23;12.70;;;10.20;99.90;;;;;;7370167;19;20093;-67
2023/12/17 04:04:29;;;;;;;18.15;12.13;;;10.30;99.90;;;;;;7368069;19;20745;-67
2023/12/17 04:06:57;;;;;;;20.10;11.85;;;10.30;99.90;;;;;;7370874;19;20015;-67
2023/12/17 04:09:23;;;;;;;16.17;11.52;;;10.30;99.90;;;;;;7371246;19;20018;-63
2023/12/17 04:11:50;;;;;;;14.73;11.73;;;10.30;99.90;;;;;;7371562;19;20022;-63
2023/12/17 04:14:16;;;;;;;17.60;12.50;;;10.30;99.90;;;;;;7366872;19;20014;-63
2023/12/17 04:16:42;;;;;;;21.23;12.15;;;10.30;99.90;;;;;;7368111;19;20358;-67
2023/12/17 04:19:09;;;;;;;15.45;12.13;;;10.30;99.90;;;;;;7365370;19;20041;-63
2023/12/17 04:21:35;;;;;;;17.85;11.23;;;10.30;99.90;;;;;;7366287;19;20051;-63
2023/12/17 04:24:02;;;;;;;21.13;11.85;;;10.30;99.90;;;;;;7367503;19;20024;-63
2023/12/17 04:26:30;;;;;;;21.35;12.18;;;10.30;99.90;;;;;;7369079;19;20746;-68
2023/12/17 04:28:57;;;;;;;14.63;11.32;;;10.30;99.90;;;;;;7370252;19;20025;-68
2023/12/17 04:31:23;;;;;;;19.65;12.10;;;10.30;99.90;;;;;;7369971;19;20033;-64
2023/12/17 04:33:50;;;;;;;15.88;10.40;;;10.30;99.90;;;;;;7368298;19;20458;-68
2023/12/17 04:36:18;;;;;;;19.75;11.73;;;10.30;99.90;;;;;;7365201;19;20368;-67
2023/12/17 04:38:46;;;;;;;14.38;11.68;;;10.30;99.90;;;;;;7366364;19;20042;-63
2023/12/17 04:41:13;;;;;;;14.45;10.75;;;10.30;99.90;;;;;;7367403;19;20015;-63
2023/12/17 04:43:41;;;;;;;14.07;10.30;;;10.30;99.90;;;;;;7367880;19;20015;-64
2023/12/17 04:46:12;;;;;;;21.00;10.18;;;10.30;99.90;;;;;;7367603;19;20014;-63
2023/12/17 04:48:38;;;;;;;12.23;9.73;;;10.30;99.90;;;;;;7363557;19;20029;-63
2023/12/17 04:51:05;;;;;;;14.27;9.55;;;10.30;99.90;;;;;;7367333;19;20100;-64
2023/12/17 04:53:32;;;;;;;13.48;9.98;;;10.30;99.90;;;;;;7366050;19;20111;-63
2023/12/17 04:55:59;;;;;;;15.02;10.07;;;10.30;99.90;;;;;;7367045;19;20941;-63
2023/12/17 04:58:26;;;;;;;12.75;9.77;;;10.30;99.90;;;;;;7361960;19;20887;-63
2023/12/17 05:00:52;;;;;;;16.02;10.43;;;10.30;99.90;;;;;;7367647;19;20082;-63
2023/12/17 05:03:18;;;;;;;13.07;10.85;;;10.30;99.90;;;;;;7369110;19;20343;-63
2023/12/17 05:05:47;;;;;;;13.85;10.68;;;10.30;99.90;;;;;;7371367;19;20014;-63
2023/12/17 05:08:13;;;;;;;15.75;11.23;;;10.30;99.90;;;;;;7375412;19;20026;-68
2023/12/17 05:10:41;;;;;;;13.15;10.68;;;10.30;99.90;;;;;;7370022;19;20022;-63
2023/12/17 05:13:08;;;;;;;12.68;10.98;;;10.30;99.90;;;;;;7376765;19;20071;-63
2023/12/17 05:15:34;;;;;;;15.35;11.00;;;10.30;99.90;;;;;;7371768;19;20019;-67
2023/12/17 05:18:00;;;;;;;14.45;10.55;;;10.30;99.90;;;;;;7370973;19;20025;-67
2023/12/17 05:20:27;;;;;;;14.13;11.23;;;10.30;99.90;;;;;;7368196;19;20060;-67
2023/12/17 05:22:53;;;;;;;17.40;11.98;;;10.30;99.90;;;;;;7374059;19;20765;-63
2023/12/17 05:25:21;;;;;;;17.00;11.00;;;10.30;99.90;;;;;;7373502;19;20037;-63
2023/12/17 05:27:48;;;;;;;14.18;10.75;;;10.30;99.90;;;;;;7375439;19;20056;-63
2023/12/17 05:30:14;;;;;;;13.90;10.50;;;10.20;99.90;;;;;;7369371;19;20029;-67
2023/12/17 05:32:40;;;;;;;14.32;11.82;;;10.30;99.90;;;;;;7374599;19;20060;-67
2023/12/17 05:35:08;;;;;;;14.07;11.15;;;10.30;99.90;;;;;;7368455;19;20465;-67
2023/12/17 05:37:34;;;;;;;15.48;11.13;;;10.20;99.90;;;;;;7369865;19;20365;-67
2023/12/17 05:40:01;;;;;;;12.93;11.10;;;10.30;99.90;;;;;;7371986;19;20758;-67
2023/12/17 05:42:27;;;;;;;13.85;11.32;;;10.20;99.90;;;;;;7371556;19;20025;-68
2023/12/17 05:44:53;;;;;;;14.02;10.77;;;10.20;99.90;;;;;;7372984;19;20018;-67
2023/12/17 05:47:19;;;;;;;14.82;10.98;;;10.20;99.90;;;;;;7368044;19;20025;-67
2023/12/17 05:49:46;;;;;;;14.68;9.75;;;10.20;99.90;;;;;;7372278;19;20019;-68
2023/12/17 05:52:12;;;;;;;14.45;9.95;;;10.20;99.90;;;;;;7370991;19;20022;-67
2023/12/17 05:54:38;;;;;;;12.65;9.57;;;10.20;99.90;;;;;;7373024;19;20035;-67
2023/12/17 05:57:05;;;;;;;14.02;10.63;;;10.20;99.90;;;;;;7367920;19;20823;-67
2023/12/17 05:59:31;;;;;;;14.32;10.68;;;10.10;99.90;;;;;;7368844;19;20040;-67
2023/12/17 06:01:57;;;;;;;14.07;9.07;;;10.10;99.90;;;;;;7370900;19;20022;-67
2023/12/17 06:04:24;;;;;;;16.42;10.27;;;10.10;99.90;;;;;;7370528;19;20022;-67
2023/12/17 06:06:50;;;;;;;15.60;9.85;;;10.10;99.90;;;;;;7368261;19;20037;-67
2023/12/17 06:09:17;;;;;;;11.75;9.02;;;10.10;99.90;;;;;;7371943;19;20018;-62
2023/12/17 06:11:43;;;;;;;12.10;9.32;;;10.10;99.90;;;;;;7368200;19;20074;-67
2023/12/17 06:14:10;;;;;;;11.52;7.53;;;10.10;99.90;;;;;;7369948;19;20129;-62
2023/12/17 06:16:41;;;;;;;12.85;8.05;;;10.00;99.90;;;;;;7366782;19;20018;-67
2023/12/17 06:19:08;;;;;;;10.15;8.10;;;10.00;99.90;;;;;;7369996;19;20033;-67
2023/12/17 06:21:37;;;;;;;13.43;8.52;;;10.00;99.90;;;;;;7370156;19;20113;-67
2023/12/17 06:24:24;;;;;;;11.90;7.78;;;10.00;99.90;;;;;;7369232;19;20015;-67
2023/12/17 06:26:53;;;;;;;12.13;7.10;;;10.00;99.90;;;;;;7368392;19;20029;-67
2023/12/17 06:29:20;;;;;;;11.25;8.07;;;10.00;99.90;;;;;;7369336;19;20031;-62
2023/12/17 06:31:46;;;;;;;12.13;7.35;;;10.00;99.90;;;;;;7367981;19;20064;-62
2023/12/17 06:34:13;;;;;;;15.88;8.45;;;10.00;99.90;;;;;;7370461;19;20030;-63
2023/12/17 06:36:39;;;;;;;14.10;9.18;;;10.00;99.90;;;;;;7367631;19;20063;-62
2023/12/17 06:39:09;;;;;;;10.98;9.75;;;10.00;99.90;;;;;;7370135;19;20470;-62
2023/12/17 06:41:42;;;;;;;12.18;9.05;;;10.00;99.90;;;;;;7364778;19;20015;-62
2023/12/17 06:44:08;;;;;;;19.85;10.95;;;10.00;99.90;;;;;;7368810;19;20052;-67
2023/12/17 06:46:34;;;;;;;12.40;11.10;;;10.00;99.90;;;;;;7367786;19;20135;-62
2023/12/17 06:49:00;;;;;;;13.98;10.18;;;10.00;99.90;;;;;;7371524;19;20070;-62
2023/12/17 06:51:26;;;;;;;10.80;9.15;;;9.90;99.90;;;;;;7368092;19;20038;-63
2023/12/17 06:53:55;;;;;;;16.92;10.93;;;9.90;99.90;;;;;;7369754;19;20014;-62
2023/12/17 06:56:43;;;;;;;13.75;11.00;;;9.90;99.90;;;;;;7366529;19;20018;-62
2023/12/17 06:59:10;;;;;;;14.80;9.88;;;10.00;99.90;;;;;;7370050;19;20018;-62
2023/12/17 07:01:36;;;;;;;11.30;10.02;;;10.00;99.90;;;;;;7370849;19;20082;-68
2023/12/17 07:04:02;;;;;;;13.57;10.30;;;10.00;99.90;;;;;;7371532;19;20014;-67
2023/12/17 07:06:30;;;;;;;13.00;10.82;;;9.90;99.90;;;;;;7367780;19;20585;-66
2023/12/17 07:08:57;;;;;;;15.23;10.80;;;10.00;99.90;;;;;;7367849;19;20014;-62
2023/12/17 07:11:23;;;;;;;13.45;10.07;;;10.00;99.90;;;;;;7371875;19;20018;-62
2023/12/17 07:13:49;;;;;;;18.00;11.68;;;9.90;99.90;;;;;;7370546;19;20561;-63
2023/12/17 07:16:28;;;;;;;16.73;11.23;;;10.00;99.90;;;;;;7371704;19;20585;-66
2023/12/17 07:18:54;;;;;;;17.88;12.73;;;10.00;99.90;;;;;;7368410;19;20018;-62
2023/12/17 07:21:20;;;;;;;15.13;12.68;;;9.90;99.90;;;;;;7368194;19;20021;-62
2023/12/17 07:23:47;;;;;;;21.75;13.60;;;9.90;99.90;;;;;;7368782;19;21002;-63
2023/12/17 07:26:14;;;;;;;20.35;13.80;;;9.90;99.90;;;;;;7369088;19;20018;-62
2023/12/17 07:28:40;;;;;;;17.05;12.32;;;9.90;99.90;;;;;;7365148;19;20018;-62
2023/12/17 07:31:10;;;;;;;18.02;11.60;;;9.90;99.90;;;;;;7366485;19;20591;-62
2023/12/17 07:33:36;;;;;;;19.17;12.20;;;9.90;99.90;;;;;;7363783;19;20470;-64
2023/12/17 07:36:03;;;;;;;20.75;13.85;;;9.90;99.90;;;;;;7365606;19;20051;-69
2023/12/17 07:38:32;;;;;;;20.35;12.38;;;9.80;99.90;;;;;;7362672;19;20024;-67
2023/12/17 07:40:58;;;;;;;16.40;12.02;;;9.90;99.90;;;;;;7364707;19;20102;-63
2023/12/17 07:43:24;;;;;;;16.65;12.23;;;9.90;99.90;;;;;;7365124;19;20018;-67
2023/12/17 07:45:51;;;;;;;15.40;13.05;;;9.80;99.90;;;;;;7363486;19;20415;-67
2023/12/17 07:48:17;;;;;;;16.70;13.30;;;9.90;99.90;;;;;;7361113;19;20014;-66
2023/12/17 07:50:43;;;;;;;18.27;12.32;;;9.80;99.90;;;;;;7362382;19;20031;-67
2023/12/17 07:53:09;;;;;;;21.98;13.52;;;9.80;99.90;;;;;;7367615;19;20040;-67
2023/12/17 07:55:36;;;;;;;17.83;13.90;;;9.80;99.90;;;;;;7367750;19;20019;-66
2023/12/17 07:58:02;;;;;;;17.35;14.02;;;9.80;99.90;;;;;;7367320;19;20018;-63
2023/12/17 08:00:28;;;;;;;17.55;14.52;;;9.80;99.90;;;;;;7359601;19;20018;-64
2023/12/17 08:02:54;;;;;;;18.13;13.55;;;9.80;99.90;;;;;;7369124;19;20046;-66
2023/12/17 08:05:21;;;;;;;21.42;16.83;;;9.80;99.90;;;;;;7364042;19;20039;-66
2023/12/17 08:07:47;;;;;;;22.40;16.58;;;9.80;99.90;;;;;;7362757;19;20828;-67
2023/12/17 08:10:13;;;;;;;24.23;17.98;;;9.70;99.90;;;;;;7359785;19;20018;-67
2023/12/17 08:12:39;;;;;;;24.45;20.20;;;9.70;99.90;;;;;;7365165;19;20022;-66
2023/12/17 08:15:06;;;;;;;22.17;18.88;;;9.80;99.90;;;;;;7362938;19;20019;-66
2023/12/17 08:17:35;;;;;;;26.75;20.58;;;9.70;99.90;;;;;;7357813;19;20035;-66
2023/12/17 08:20:01;;;;;;;24.85;20.60;;;9.80;99.90;;;;;;7360816;19;20038;-66
2023/12/17 08:22:27;;;;;;;21.35;17.65;;;9.80;99.90;;;;;;7363781;19;20022;-66
2023/12/17 08:24:53;;;;;;;25.52;16.75;;;9.80;99.90;;;;;;7364210;19;20034;-66
2023/12/17 08:27:20;;;;;;;22.05;17.90;;;9.80;99.90;;;;;;7363527;19;20011;-67
2023/12/17 08:29:50;;;;;;;23.33;17.00;;;9.80;99.90;;;;;;7355595;19;20026;-66
2023/12/17 08:32:17;;;;;;;24.20;17.50;;;9.80;99.90;;;;;;7366439;19;20074;-66
2023/12/17 08:34:44;;;;;;;21.88;16.83;;;9.80;99.90;;;;;;7361253;19;20039;-66
2023/12/17 08:37:10;;;;;;;24.77;17.15;;;9.70;99.90;;;;;;7367099;19;20054;-66
2023/12/17 08:39:36;;;;;;;25.90;15.98;;;9.80;99.90;;;;;;7369179;19;20023;-66
2023/12/17 08:42:02;;;;;;;23.02;15.38;;;9.80;99.90;;;;;;7371562;19;20403;-66
2023/12/17 08:44:28;;;;;;;23.13;16.90;;;9.80;99.90;;;;;;7367534;19;20515;-64
2023/12/17 08:46:55;;;;;;;23.52;15.63;;;9.80;99.90;;;;;;7377248;19;20019;-62
2023/12/17 08:49:21;;;;;;;20.85;17.42;;;9.80;99.90;;;;;;7370187;19;20052;-62
2023/12/17 08:51:48;;;;;;;21.38;16.25;;;9.80;99.90;;;;;;7370649;19;20018;-62
2023/12/17 08:54:14;;;;;;;26.35;15.95;;;9.90;99.90;;;;;;7377096;19;20014;-63
2023/12/17 08:56:41;;;;;;;24.83;16.17;;;9.80;99.90;;;;;;7368058;19;20014;-62
2023/12/17 08:59:08;;;;;;;22.52;15.27;;;9.80;99.90;;;;;;7377253;19;20643;-63
2023/12/17 09:01:36;;;;;;;21.20;16.05;;;9.80;99.90;;;;;;7368472;19;20078;-67
2023/12/17 09:04:03;;;;;;;24.83;17.17;;;9.90;99.90;;;;;;7376399;19;20486;-66
2023/12/17 09:06:29;;;;;;;27.00;16.60;;;9.90;99.90;;;;;;7373738;19;20031;-67
2023/12/17 09:08:56;;;;;;;27.85;17.23;;;9.90;99.90;;;;;;7366990;19;20044;-62
2023/12/17 09:11:22;;;;;;;27.67;16.88;;;9.90;99.90;;;;;;7371931;19;20098;-63
2023/12/17 09:13:49;;;;;;;28.75;16.02;;;9.90;99.90;;;;;;7371174;19;20018;-63
2023/12/17 09:16:16;;;;;;;23.88;16.17;;;9.90;99.90;;;;;;7373878;19;20031;-64
2023/12/17 09:18:42;;;;;;;26.20;17.80;;;9.90;99.90;;;;;;7365803;19;20903;-66
2023/12/17 09:21:08;;;;;;;24.95;16.17;;;9.90;99.90;;;;;;7371175;19;20014;-68
2023/12/17 09:23:35;;;;;;;24.60;16.83;;;9.90;99.90;;;;;;7370444;19;20023;-67
2023/12/17 09:26:21;;;;;;;25.73;16.95;;;9.90;99.90;;;;;;7370367;19;20022;-62
2023/12/17 09:28:48;;;;;;;25.80;17.05;;;9.90;99.90;;;;;;7372240;19;20419;-66
2023/12/17 09:31:14;;;;;;;23.65;17.05;;;9.90;99.90;;;;;;7371848;19;20045;-66
2023/12/17 09:33:42;;;;;;;24.92;17.50;;;9.90;99.90;;;;;;7366782;19;20042;-66
2023/12/17 09:36:11;;;;;;;21.70;15.73;;;9.90;99.90;;;;;;7369422;19;20106;-63
2023/12/17 09:38:38;;;;;;;20.92;17.58;;;9.90;99.90;;;;;;7369369;19;20618;-62
2023/12/17 09:41:05;;;;;;;26.98;19.13;;;9.90;99.90;;;;;;7367108;19;20745;-62
2023/12/17 09:43:33;;;;;;;26.92;19.20;;;9.90;99.90;;;;;;7371368;19;20031;-63
2023/12/17 09:45:59;;;;;;;27.52;19.73;;;9.90;99.90;;;;;;7373385;19;20035;-63
2023/12/17 09:48:27;;;;;;;30.65;21.05;;;9.90;99.90;;;;;;7372498;19;20026;-62
2023/12/17 09:50:54;;;;;;;30.50;22.40;;;9.90;99.90;;;;;;7373162;19;20021;-65
2023/12/17 09:53:22;;;;;;;29.27;22.00;;;9.90;99.90;;;;;;7376329;19;20018;-67
2023/12/17 09:55:48;;;;;;;33.90;22.92;;;9.90;99.90;;;;;;7373033;19;20045;-67
2023/12/17 09:58:18;;;;;;;32.22;22.83;;;9.90;99.90;;;;;;7368571;19;20086;-67
2023/12/17 10:00:44;;;;;;;28.80;19.42;;;9.90;99.90;;;;;;7373634;19;20023;-67
2023/12/17 10:03:15;;;;;;;31.40;22.02;;;9.90;99.90;;;;;;7370818;19;20025;-68
2023/12/17 10:05:41;;;;;;;34.90;22.87;;;9.90;99.90;;;;;;7376978;19;20025;-67
2023/12/17 10:08:08;;;;;;;31.85;21.10;;;9.90;99.90;;;;;;7371836;19;21015;-67
2023/12/17 10:10:34;;;;;;;34.65;22.60;;;10.00;99.90;;;;;;7369566;19;20018;-67
2023/12/17 10:13:00;;;;;;;32.67;23.15;;;10.00;99.90;;;;;;7373265;19;20021;-67
2023/12/17 10:15:27;;;;;;;32.45;23.77;;;9.90;99.90;;;;;;7370795;19;20018;-67
2023/12/17 10:17:53;;;;;;;33.75;22.10;;;10.00;99.90;;;;;;7368797;19;20022;-67
2023/12/17 10:20:20;;;;;;;34.35;23.10;;;10.00;99.90;;;;;;7369339;19;20014;-67
2023/12/17 10:22:59;;;;;;;30.75;21.77;;;10.00;99.90;;;;;;7369328;19;20117;-62
2023/12/17 10:25:26;;;;;;;31.95;20.17;;;10.00;99.90;;;;;;7374804;19;20018;-61
2023/12/17 10:27:57;;;;;;;34.28;22.75;;;10.00;99.90;;;;;;7370494;19;20022;-62
2023/12/17 10:30:31;;;;;;;28.55;20.20;;;10.00;99.90;;;;;;7370713;19;20019;-63
2023/12/17 10:32:59;;;;;;;27.00;19.60;;;10.00;99.90;;;;;;7372632;19;20106;-61
2023/12/17 10:35:28;;;;;;;26.42;18.80;;;10.00;99.90;;;;;;7372946;19;20099;-62
2023/12/17 10:38:05;;;;;;;26.00;17.63;;;10.00;99.90;;;;;;7372176;19;20836;-62
2023/12/17 10:40:36;;;;;;;21.85;16.02;;;10.00;99.90;;;;;;7370263;19;20053;-62
2023/12/17 10:43:05;;;;;;;21.20;16.80;;;10.00;99.90;;;;;;7369908;19;20018;-62
2023/12/17 10:45:34;;;;;;;25.65;17.58;;;10.00;99.90;;;;;;7369026;19;20015;-62
2023/12/17 10:48:02;;;;;;;23.23;17.52;;;10.10;99.90;;;;;;7368412;19;20023;-63
2023/12/17 10:50:29;;;;;;;23.25;17.48;;;10.00;99.90;;;;;;7370465;19;20010;-62
2023/12/17 10:52:58;;;;;;;19.08;15.30;;;10.00;99.90;;;;;;7370007;19;20089;-63
2023/12/17 10:55:24;;;;;;;21.48;16.00;;;10.00;99.90;;;;;;7369513;19;20041;-63
2023/12/17 10:58:16;;;;;;;23.15;16.05;;;10.00;99.90;;;;;;7365169;19;20359;-62
2023/12/17 11:00:43;;;;;;;20.58;16.15;;;10.00;99.90;;;;;;7363199;19;20023;-63
2023/12/17 11:03:13;;;;;;;22.13;17.00;;;10.00;99.90;;;;;;7370128;19;20041;-67
2023/12/17 11:06:01;;;;;;;20.75;16.52;;;10.00;99.90;;;;;;7370539;19;20019;-66
2023/12/17 11:08:30;;;;;;;18.70;15.18;;;10.00;99.90;;;;;;7373945;19;20015;-66
2023/12/17 11:10:58;;;;;;;17.98;15.15;;;10.00;99.90;;;;;;7366069;19;20035;-62
2023/12/17 11:13:24;;;;;;;21.42;16.02;;;10.00;99.90;;;;;;7367727;19;20031;-62
2023/12/17 11:15:52;;;;;;;23.05;14.95;;;10.00;99.90;;;;;;7363207;19;20029;-62
2023/12/17 11:18:23;;;;;;;20.77;15.30;;;10.00;99.90;;;;;;7366148;19;20018;-62
2023/12/17 11:20:52;;;;;;;20.08;16.15;;;10.00;99.90;;;;;;7362644;19;20572;-66
2023/12/17 11:23:20;;;;;;;20.70;14.70;;;9.90;99.90;;;;;;7367948;19;20039;-67
2023/12/17 11:25:47;;;;;;;21.63;15.52;;;9.90;99.90;;;;;;7366073;19;20865;-66
2023/12/17 11:28:24;;;;;;;20.42;14.90;;;10.10;99.90;;;;;;7369341;19;20796;-66
2023/12/17 11:30:52;;;;;;;20.85;16.55;;;10.10;99.90;;;;;;7369989;19;20023;-66
2023/12/17 11:33:19;;;;;;;20.30;15.73;;;10.00;99.90;;;;;;7366320;19;20095;-66
2023/12/17 11:35:47;;;;;;;19.55;16.08;;;10.00;99.90;;;;;;7364228;19;20015;-66
2023/12/17 11:38:14;;;;;;;23.60;16.67;;;10.10;99.90;;;;;;7369858;19;20050;-67
2023/12/17 11:40:42;;;;;;;17.80;15.25;;;10.20;99.90;;;;;;7364981;19;20027;-66
2023/12/17 11:43:08;;;;;;;23.23;16.42;;;10.20;99.90;;;;;;7366684;19;20018;-66
2023/12/17 11:45:47;;;;;;;23.83;16.73;;;10.20;99.90;;;;;;7367060;19;20032;-66
2023/12/17 11:48:16;;;;;;;19.52;15.75;;;10.20;99.90;;;;;;7369546;19;20029;-66
2023/12/17 11:50:48;;;;;;;22.48;17.65;;;10.20;99.90;;;;;;7367150;19;20028;-66
2023/12/17 11:53:16;;;;;;;23.08;18.27;;;10.20;99.90;;;;;;7368597;19;20472;-66
2023/12/17 11:55:45;;;;;;;23.40;17.73;;;10.10;99.90;;;;;;7369058;19;20030;-66
2023/12/17 11:58:15;;;;;;;24.52;20.13;;;10.10;99.90;;;;;;7369902;19;20018;-66
2023/12/17 12:01:03;;;;;;;24.85;18.85;;;10.10;99.90;;;;;;7366497;19;20022;-66
2023/12/17 12:03:30;;;;;;;27.38;20.88;;;10.00;99.90;;;;;;7364738;19;20018;-66
2023/12/17 12:06:12;;;;;;;29.77;22.63;;;10.00;99.90;;;;;;7365300;19;20010;-66
2023/12/17 12:08:40;;;;;;;;;;;10.00;99.90;;;;;;7367291;19;20026;-67
2023/12/17 12:11:16;;;;;;;32.10;21.10;;;10.00;99.90;;;;;;7367486;19;19922;-67
2023/12/17 12:13:48;;;;;;;29.30;20.33;;;9.90;99.90;;;;;;7366005;19;20887;-67
2023/12/17 12:16:15;;;;;;;30.48;23.30;;;10.00;99.90;;;;;;7364502;19;20022;-67
2023/12/17 12:19:02;;;;;;;29.20;22.10;;;10.00;99.90;;;;;;7362713;19;20988;-67
2023/12/17 12:21:29;;;;;;;31.65;23.02;;;10.00;99.90;;;;;;7368382;19;20058;-68
2023/12/17 12:23:57;;;;;;;32.85;22.77;;;9.90;99.90;;;;;;7362810;19;20019;-67
2023/12/17 12:26:24;;;;;;;31.85;22.95;;;10.00;99.90;;;;;;7366001;19;20032;-67
2023/12/17 12:28:59;;;;;;;29.75;22.35;;;10.10;99.90;;;;;;7363925;19;20026;-67
2023/12/17 12:31:27;;;;;;;29.13;22.48;;;10.10;99.90;;;;;;7368880;19;20409;-67
2023/12/17 12:34:14;;;;;;;35.33;23.50;;;10.10;99.90;;;;;;7363669;19;20027;-67
2023/12/17 12:36:45;;;;;;;31.20;21.88;;;10.20;99.90;;;;;;7367731;19;20019;-67